sensor_id;sensor_type;location;lat;lon;timestamp;P1;durP1;ratioP1;P2;durP2;ratioP2
9884;SDS011;4981;50.966;4.842;2023-03-01T00:01:52;7.67;;;6.30;;
9884;SDS011;4981;50.966;4.842;2023-03-01T00:04:19;9.03;;;6.30;;
9884;SDS011;4981;50.966;4.842;2023-03-01T00:06:47;11.30;;;7.67;;
9884;SDS011;4981;50.966;4.842;2023-03-01T00:09:16;10.53;;;8.40;;
9884;SDS011;4981;50.966;4.842;2023-03-01T00:11:44;10.93;;;8.60;;
9884;SDS011;4981;50.966;4.842;2023-03-01T00:14:12;11.87;;;8.53;;
9884;SDS011;4981;50.966;4.842;2023-03-01T00:16:41;13.27;;;9.27;;
9884;SDS011;4981;50.966;4.842;2023-03-01T00:19:11;17.77;;;10.37;;
9884;SDS011;4981;50.966;4.842;2023-03-01T00:21:39;18.57;;;14.13;;
9884;SDS011;4981;50.966;4.842;2023-03-01T00:24:07;13.73;;;7.90;;
9884;SDS011;4981;50.966;4.842;2023-03-01T00:26:36;11.20;;;8.37;;
9884;SDS011;4981;50.966;4.842;2023-03-01T00:29:04;14.40;;;9.87;;
9884;SDS011;4981;50.966;4.842;2023-03-01T00:31:32;14.23;;;9.73;;
9884;SDS011;4981;50.966;4.842;2023-03-01T00:34:00;29.80;;;17.67;;
9884;SDS011;4981;50.966;4.842;2023-03-01T00:36:29;28.13;;;15.37;;
9884;SDS011;4981;50.966;4.842;2023-03-01T00:38:57;23.03;;;13.57;;
9884;SDS011;4981;50.966;4.842;2023-03-01T00:41:24;20.37;;;13.80;;
9884;SDS011;4981;50.966;4.842;2023-03-01T00:43:54;24.43;;;15.97;;
9884;SDS011;4981;50.966;4.842;2023-03-01T00:46:23;15.93;;;11.23;;
9884;SDS011;4981;50.966;4.842;2023-03-01T00:48:53;17.87;;;12.47;;
9884;SDS011;4981;50.966;4.842;2023-03-01T00:51:21;12.10;;;7.93;;
9884;SDS011;4981;50.966;4.842;2023-03-01T00:53:50;8.63;;;6.83;;
9884;SDS011;4981;50.966;4.842;2023-03-01T00:56:18;9.80;;;6.67;;
9884;SDS011;4981;50.966;4.842;2023-03-01T00:58:45;12.20;;;8.07;;
9884;SDS011;4981;50.966;4.842;2023-03-01T01:01:15;8.73;;;7.40;;
9884;SDS011;4981;50.966;4.842;2023-03-01T01:03:44;6.63;;;5.77;;
9884;SDS011;4981;50.966;4.842;2023-03-01T01:06:15;10.27;;;5.70;;
9884;SDS011;4981;50.966;4.842;2023-03-01T01:08:43;10.83;;;6.17;;
9884;SDS011;4981;50.966;4.842;2023-03-01T01:11:11;9.57;;;6.13;;
9884;SDS011;4981;50.966;4.842;2023-03-01T01:13:39;8.53;;;6.57;;
9884;SDS011;4981;50.966;4.842;2023-03-01T01:16:07;8.47;;;5.67;;
9884;SDS011;4981;50.966;4.842;2023-03-01T01:18:36;9.73;;;6.23;;
9884;SDS011;4981;50.966;4.842;2023-03-01T01:21:05;7.67;;;5.97;;
9884;SDS011;4981;50.966;4.842;2023-03-01T01:23:33;8.97;;;5.93;;
9884;SDS011;4981;50.966;4.842;2023-03-01T01:26:04;7.80;;;6.50;;
9884;SDS011;4981;50.966;4.842;2023-03-01T01:28:32;8.73;;;6.67;;
9884;SDS011;4981;50.966;4.842;2023-03-01T01:30:59;8.93;;;6.43;;
9884;SDS011;4981;50.966;4.842;2023-03-01T01:33:27;9.37;;;6.13;;
9884;SDS011;4981;50.966;4.842;2023-03-01T01:35:56;9.10;;;6.37;;
9884;SDS011;4981;50.966;4.842;2023-03-01T01:38:23;9.13;;;6.17;;
9884;SDS011;4981;50.966;4.842;2023-03-01T01:40:51;7.67;;;6.37;;
9884;SDS011;4981;50.966;4.842;2023-03-01T01:43:20;9.00;;;7.07;;
9884;SDS011;4981;50.966;4.842;2023-03-01T01:45:48;9.10;;;6.63;;
9884;SDS011;4981;50.966;4.842;2023-03-01T01:48:17;7.90;;;5.90;;
9884;SDS011;4981;50.966;4.842;2023-03-01T01:50:46;7.80;;;6.83;;
9884;SDS011;4981;50.966;4.842;2023-03-01T01:53:20;9.10;;;6.67;;
9884;SDS011;4981;50.966;4.842;2023-03-01T01:55:49;8.87;;;6.30;;
9884;SDS011;4981;50.966;4.842;2023-03-01T01:58:18;10.27;;;7.33;;
9884;SDS011;4981;50.966;4.842;2023-03-01T02:00:46;9.87;;;7.37;;
9884;SDS011;4981;50.966;4.842;2023-03-01T02:03:16;8.63;;;6.93;;
9884;SDS011;4981;50.966;4.842;2023-03-01T02:05:46;11.00;;;7.40;;
9884;SDS011;4981;50.966;4.842;2023-03-01T02:08:15;8.73;;;6.83;;
9884;SDS011;4981;50.966;4.842;2023-03-01T02:10:46;10.67;;;7.03;;
9884;SDS011;4981;50.966;4.842;2023-03-01T02:13:14;12.50;;;8.50;;
9884;SDS011;4981;50.966;4.842;2023-03-01T02:15:41;10.30;;;7.37;;
9884;SDS011;4981;50.966;4.842;2023-03-01T02:18:10;9.33;;;7.17;;
9884;SDS011;4981;50.966;4.842;2023-03-01T02:20:40;10.47;;;6.90;;
9884;SDS011;4981;50.966;4.842;2023-03-01T02:23:11;8.63;;;7.70;;
9884;SDS011;4981;50.966;4.842;2023-03-01T02:25:42;10.30;;;7.67;;
9884;SDS011;4981;50.966;4.842;2023-03-01T02:28:26;8.37;;;6.87;;
9884;SDS011;4981;50.966;4.842;2023-03-01T02:30:53;9.23;;;7.23;;
9884;SDS011;4981;50.966;4.842;2023-03-01T02:33:38;10.90;;;6.77;;
9884;SDS011;4981;50.966;4.842;2023-03-01T02:36:08;8.17;;;5.53;;
9884;SDS011;4981;50.966;4.842;2023-03-01T02:38:36;9.27;;;6.50;;
9884;SDS011;4981;50.966;4.842;2023-03-01T02:41:04;10.33;;;6.33;;
9884;SDS011;4981;50.966;4.842;2023-03-01T02:43:34;8.83;;;5.90;;
9884;SDS011;4981;50.966;4.842;2023-03-01T02:46:03;8.87;;;6.03;;
9884;SDS011;4981;50.966;4.842;2023-03-01T02:48:39;8.67;;;6.63;;
9884;SDS011;4981;50.966;4.842;2023-03-01T02:51:07;8.20;;;6.47;;
9884;SDS011;4981;50.966;4.842;2023-03-01T02:53:39;12.00;;;8.30;;
9884;SDS011;4981;50.966;4.842;2023-03-01T02:56:09;10.43;;;7.23;;
9884;SDS011;4981;50.966;4.842;2023-03-01T02:58:39;8.17;;;7.37;;
9884;SDS011;4981;50.966;4.842;2023-03-01T03:01:10;8.27;;;7.23;;
9884;SDS011;4981;50.966;4.842;2023-03-01T03:03:38;9.93;;;6.40;;
9884;SDS011;4981;50.966;4.842;2023-03-01T03:06:06;8.83;;;6.60;;
9884;SDS011;4981;50.966;4.842;2023-03-01T03:08:34;9.30;;;6.77;;
9884;SDS011;4981;50.966;4.842;2023-03-01T03:11:01;9.83;;;7.57;;
9884;SDS011;4981;50.966;4.842;2023-03-01T03:13:29;10.03;;;7.47;;
9884;SDS011;4981;50.966;4.842;2023-03-01T03:15:59;7.87;;;6.57;;
9884;SDS011;4981;50.966;4.842;2023-03-01T03:18:26;7.77;;;6.23;;
9884;SDS011;4981;50.966;4.842;2023-03-01T03:20:54;9.20;;;6.30;;
9884;SDS011;4981;50.966;4.842;2023-03-01T03:23:22;10.17;;;7.03;;
9884;SDS011;4981;50.966;4.842;2023-03-01T03:25:49;10.07;;;7.83;;
9884;SDS011;4981;50.966;4.842;2023-03-01T03:28:17;12.67;;;6.90;;
9884;SDS011;4981;50.966;4.842;2023-03-01T03:30:45;7.27;;;6.17;;
9884;SDS011;4981;50.966;4.842;2023-03-01T03:33:14;9.43;;;7.10;;
9884;SDS011;4981;50.966;4.842;2023-03-01T03:35:44;11.00;;;7.47;;
9884;SDS011;4981;50.966;4.842;2023-03-01T03:38:13;9.67;;;6.50;;
9884;SDS011;4981;50.966;4.842;2023-03-01T03:40:45;7.00;;;5.67;;
9884;SDS011;4981;50.966;4.842;2023-03-01T03:43:13;9.40;;;8.20;;
9884;SDS011;4981;50.966;4.842;2023-03-01T03:45:41;6.87;;;6.00;;
9884;SDS011;4981;50.966;4.842;2023-03-01T03:48:10;9.30;;;7.67;;
9884;SDS011;4981;50.966;4.842;2023-03-01T03:50:40;8.87;;;6.63;;
9884;SDS011;4981;50.966;4.842;2023-03-01T03:53:08;8.70;;;6.63;;
9884;SDS011;4981;50.966;4.842;2023-03-01T03:55:37;12.50;;;7.20;;
9884;SDS011;4981;50.966;4.842;2023-03-01T03:58:05;10.97;;;9.20;;
9884;SDS011;4981;50.966;4.842;2023-03-01T04:00:33;8.77;;;6.77;;
9884;SDS011;4981;50.966;4.842;2023-03-01T04:03:01;9.33;;;7.17;;
9884;SDS011;4981;50.966;4.842;2023-03-01T04:05:29;10.47;;;6.80;;
9884;SDS011;4981;50.966;4.842;2023-03-01T04:07:58;8.13;;;6.83;;
9884;SDS011;4981;50.966;4.842;2023-03-01T04:10:33;9.13;;;6.40;;
9884;SDS011;4981;50.966;4.842;2023-03-01T04:13:00;8.83;;;6.80;;
9884;SDS011;4981;50.966;4.842;2023-03-01T04:15:28;13.90;;;6.67;;
9884;SDS011;4981;50.966;4.842;2023-03-01T04:17:56;9.03;;;6.30;;
9884;SDS011;4981;50.966;4.842;2023-03-01T04:20:24;8.33;;;6.40;;
9884;SDS011;4981;50.966;4.842;2023-03-01T04:22:58;10.37;;;6.33;;
9884;SDS011;4981;50.966;4.842;2023-03-01T04:25:35;9.40;;;6.67;;
9884;SDS011;4981;50.966;4.842;2023-03-01T04:28:03;9.77;;;6.47;;
9884;SDS011;4981;50.966;4.842;2023-03-01T04:30:31;9.80;;;6.50;;
9884;SDS011;4981;50.966;4.842;2023-03-01T04:33:02;10.13;;;6.90;;
9884;SDS011;4981;50.966;4.842;2023-03-01T04:35:30;8.73;;;6.87;;
9884;SDS011;4981;50.966;4.842;2023-03-01T04:38:01;10.07;;;6.57;;
9884;SDS011;4981;50.966;4.842;2023-03-01T04:40:28;8.97;;;6.60;;
9884;SDS011;4981;50.966;4.842;2023-03-01T04:42:56;14.03;;;6.80;;
9884;SDS011;4981;50.966;4.842;2023-03-01T04:45:24;9.27;;;6.37;;
9884;SDS011;4981;50.966;4.842;2023-03-01T04:47:52;9.53;;;6.40;;
9884;SDS011;4981;50.966;4.842;2023-03-01T04:50:23;8.13;;;6.17;;
9884;SDS011;4981;50.966;4.842;2023-03-01T04:52:51;11.13;;;7.63;;
9884;SDS011;4981;50.966;4.842;2023-03-01T04:55:20;8.70;;;7.23;;
9884;SDS011;4981;50.966;4.842;2023-03-01T04:57:50;9.13;;;6.93;;
9884;SDS011;4981;50.966;4.842;2023-03-01T05:00:18;8.37;;;6.63;;
9884;SDS011;4981;50.966;4.842;2023-03-01T05:02:47;11.13;;;8.57;;
9884;SDS011;4981;50.966;4.842;2023-03-01T05:05:18;11.83;;;7.10;;
9884;SDS011;4981;50.966;4.842;2023-03-01T05:07:46;10.43;;;7.70;;
9884;SDS011;4981;50.966;4.842;2023-03-01T05:10:13;12.33;;;9.07;;
9884;SDS011;4981;50.966;4.842;2023-03-01T05:12:43;12.00;;;7.00;;
9884;SDS011;4981;50.966;4.842;2023-03-01T05:15:11;10.17;;;7.53;;
9884;SDS011;4981;50.966;4.842;2023-03-01T05:17:39;10.23;;;7.60;;
9884;SDS011;4981;50.966;4.842;2023-03-01T05:20:07;13.67;;;7.83;;
9884;SDS011;4981;50.966;4.842;2023-03-01T05:22:35;9.20;;;6.87;;
9884;SDS011;4981;50.966;4.842;2023-03-01T05:25:03;9.97;;;7.90;;
9884;SDS011;4981;50.966;4.842;2023-03-01T05:27:32;9.53;;;7.50;;
9884;SDS011;4981;50.966;4.842;2023-03-01T05:30:01;9.53;;;8.00;;
9884;SDS011;4981;50.966;4.842;2023-03-01T05:32:39;10.83;;;9.03;;
9884;SDS011;4981;50.966;4.842;2023-03-01T05:35:07;9.77;;;8.40;;
9884;SDS011;4981;50.966;4.842;2023-03-01T05:37:34;11.70;;;8.50;;
9884;SDS011;4981;50.966;4.842;2023-03-01T05:40:02;8.50;;;7.57;;
9884;SDS011;4981;50.966;4.842;2023-03-01T05:42:30;12.10;;;8.13;;
9884;SDS011;4981;50.966;4.842;2023-03-01T05:44:57;9.17;;;7.87;;
9884;SDS011;4981;50.966;4.842;2023-03-01T05:47:26;13.13;;;8.10;;
9884;SDS011;4981;50.966;4.842;2023-03-01T05:49:56;9.70;;;7.67;;
9884;SDS011;4981;50.966;4.842;2023-03-01T05:52:25;9.90;;;6.93;;
9884;SDS011;4981;50.966;4.842;2023-03-01T05:54:52;10.43;;;7.13;;
9884;SDS011;4981;50.966;4.842;2023-03-01T05:57:20;13.60;;;8.77;;
9884;SDS011;4981;50.966;4.842;2023-03-01T05:59:48;14.80;;;12.50;;
9884;SDS011;4981;50.966;4.842;2023-03-01T06:02:15;19.97;;;14.27;;
9884;SDS011;4981;50.966;4.842;2023-03-01T06:04:46;12.50;;;8.67;;
9884;SDS011;4981;50.966;4.842;2023-03-01T06:07:14;10.10;;;7.53;;
9884;SDS011;4981;50.966;4.842;2023-03-01T06:09:41;10.40;;;7.77;;
9884;SDS011;4981;50.966;4.842;2023-03-01T06:12:09;10.10;;;7.97;;
9884;SDS011;4981;50.966;4.842;2023-03-01T06:14:37;12.27;;;9.20;;
9884;SDS011;4981;50.966;4.842;2023-03-01T06:17:04;9.57;;;7.17;;
9884;SDS011;4981;50.966;4.842;2023-03-01T06:19:32;10.70;;;8.33;;
9884;SDS011;4981;50.966;4.842;2023-03-01T06:22:01;11.23;;;7.80;;
9884;SDS011;4981;50.966;4.842;2023-03-01T06:24:28;11.50;;;6.93;;
9884;SDS011;4981;50.966;4.842;2023-03-01T06:26:56;12.60;;;7.87;;
9884;SDS011;4981;50.966;4.842;2023-03-01T06:29:23;8.07;;;6.50;;
9884;SDS011;4981;50.966;4.842;2023-03-01T06:31:51;10.40;;;7.10;;
9884;SDS011;4981;50.966;4.842;2023-03-01T06:34:19;13.83;;;7.17;;
9884;SDS011;4981;50.966;4.842;2023-03-01T06:36:46;10.53;;;6.90;;
9884;SDS011;4981;50.966;4.842;2023-03-01T06:39:16;11.97;;;7.23;;
9884;SDS011;4981;50.966;4.842;2023-03-01T06:41:43;12.80;;;6.80;;
9884;SDS011;4981;50.966;4.842;2023-03-01T06:44:11;9.73;;;7.33;;
9884;SDS011;4981;50.966;4.842;2023-03-01T06:46:39;12.80;;;7.70;;
9884;SDS011;4981;50.966;4.842;2023-03-01T06:49:06;8.93;;;6.90;;
9884;SDS011;4981;50.966;4.842;2023-03-01T06:51:34;11.67;;;7.60;;
9884;SDS011;4981;50.966;4.842;2023-03-01T06:54:03;11.20;;;7.90;;
9884;SDS011;4981;50.966;4.842;2023-03-01T06:56:32;14.33;;;7.50;;
9884;SDS011;4981;50.966;4.842;2023-03-01T06:59:00;10.57;;;7.07;;
9884;SDS011;4981;50.966;4.842;2023-03-01T07:01:28;9.13;;;7.07;;
9884;SDS011;4981;50.966;4.842;2023-03-01T07:03:55;9.90;;;7.53;;
9884;SDS011;4981;50.966;4.842;2023-03-01T07:06:23;8.73;;;6.90;;
9884;SDS011;4981;50.966;4.842;2023-03-01T07:08:51;9.77;;;7.50;;
9884;SDS011;4981;50.966;4.842;2023-03-01T07:11:18;13.17;;;7.43;;
9884;SDS011;4981;50.966;4.842;2023-03-01T07:13:48;10.87;;;7.43;;
9884;SDS011;4981;50.966;4.842;2023-03-01T07:16:15;11.20;;;8.03;;
9884;SDS011;4981;50.966;4.842;2023-03-01T07:18:43;9.63;;;7.17;;
9884;SDS011;4981;50.966;4.842;2023-03-01T07:21:11;12.23;;;7.40;;
9884;SDS011;4981;50.966;4.842;2023-03-01T07:23:39;10.33;;;7.27;;
9884;SDS011;4981;50.966;4.842;2023-03-01T07:26:07;17.57;;;7.37;;
9884;SDS011;4981;50.966;4.842;2023-03-01T07:28:34;11.30;;;7.63;;
9884;SDS011;4981;50.966;4.842;2023-03-01T07:31:06;10.40;;;7.57;;
9884;SDS011;4981;50.966;4.842;2023-03-01T07:33:33;10.40;;;7.10;;
9884;SDS011;4981;50.966;4.842;2023-03-01T07:36:02;10.57;;;7.03;;
9884;SDS011;4981;50.966;4.842;2023-03-01T07:38:29;12.87;;;8.17;;
9884;SDS011;4981;50.966;4.842;2023-03-01T07:40:57;12.03;;;7.70;;
9884;SDS011;4981;50.966;4.842;2023-03-01T07:43:25;11.03;;;7.93;;
9884;SDS011;4981;50.966;4.842;2023-03-01T07:45:53;11.43;;;7.30;;
9884;SDS011;4981;50.966;4.842;2023-03-01T07:48:22;9.33;;;7.07;;
9884;SDS011;4981;50.966;4.842;2023-03-01T07:50:50;12.57;;;7.20;;
9884;SDS011;4981;50.966;4.842;2023-03-01T07:53:17;9.63;;;7.50;;
9884;SDS011;4981;50.966;4.842;2023-03-01T07:55:45;12.80;;;7.97;;
9884;SDS011;4981;50.966;4.842;2023-03-01T07:58:13;11.63;;;8.17;;
9884;SDS011;4981;50.966;4.842;2023-03-01T08:00:40;9.63;;;7.83;;
9884;SDS011;4981;50.966;4.842;2023-03-01T08:03:08;11.87;;;7.53;;
9884;SDS011;4981;50.966;4.842;2023-03-01T08:05:37;10.93;;;7.37;;
9884;SDS011;4981;50.966;4.842;2023-03-01T08:08:05;12.30;;;8.00;;
9884;SDS011;4981;50.966;4.842;2023-03-01T08:10:32;11.17;;;7.83;;
9884;SDS011;4981;50.966;4.842;2023-03-01T08:13:00;11.67;;;8.07;;
9884;SDS011;4981;50.966;4.842;2023-03-01T08:15:27;9.40;;;6.67;;
9884;SDS011;4981;50.966;4.842;2023-03-01T08:17:55;9.53;;;7.57;;
9884;SDS011;4981;50.966;4.842;2023-03-01T08:20:22;8.97;;;7.53;;
9884;SDS011;4981;50.966;4.842;2023-03-01T08:22:52;13.07;;;7.87;;
9884;SDS011;4981;50.966;4.842;2023-03-01T08:25:19;10.83;;;8.07;;
9884;SDS011;4981;50.966;4.842;2023-03-01T08:27:47;6.37;;;4.47;;
9884;SDS011;4981;50.966;4.842;2023-03-01T08:30:15;11.20;;;6.50;;
9884;SDS011;4981;50.966;4.842;2023-03-01T08:32:43;11.73;;;8.00;;
9884;SDS011;4981;50.966;4.842;2023-03-01T08:35:11;10.07;;;7.90;;
9884;SDS011;4981;50.966;4.842;2023-03-01T08:37:38;10.93;;;7.97;;
9884;SDS011;4981;50.966;4.842;2023-03-01T08:40:09;11.87;;;8.30;;
9884;SDS011;4981;50.966;4.842;2023-03-01T08:42:38;8.70;;;5.00;;
9884;SDS011;4981;50.966;4.842;2023-03-01T08:45:08;11.60;;;8.57;;
9884;SDS011;4981;50.966;4.842;2023-03-01T08:47:36;14.13;;;8.80;;
9884;SDS011;4981;50.966;4.842;2023-03-01T08:50:04;11.43;;;7.70;;
9884;SDS011;4981;50.966;4.842;2023-03-01T08:52:32;12.43;;;8.07;;
9884;SDS011;4981;50.966;4.842;2023-03-01T08:55:00;12.90;;;8.60;;
9884;SDS011;4981;50.966;4.842;2023-03-01T08:57:29;9.60;;;6.00;;
9884;SDS011;4981;50.966;4.842;2023-03-01T08:59:57;8.43;;;6.33;;
9884;SDS011;4981;50.966;4.842;2023-03-01T09:02:25;7.77;;;5.20;;
9884;SDS011;4981;50.966;4.842;2023-03-01T09:04:52;8.03;;;6.27;;
9884;SDS011;4981;50.966;4.842;2023-03-01T09:07:20;11.30;;;7.70;;
9884;SDS011;4981;50.966;4.842;2023-03-01T09:09:53;10.27;;;8.27;;
9884;SDS011;4981;50.966;4.842;2023-03-01T09:12:21;6.70;;;3.73;;
9884;SDS011;4981;50.966;4.842;2023-03-01T09:14:51;5.77;;;4.73;;
9884;SDS011;4981;50.966;4.842;2023-03-01T09:17:19;7.03;;;4.13;;
9884;SDS011;4981;50.966;4.842;2023-03-01T09:19:46;11.13;;;8.20;;
9884;SDS011;4981;50.966;4.842;2023-03-01T09:22:14;12.80;;;9.17;;
9884;SDS011;4981;50.966;4.842;2023-03-01T09:24:42;8.97;;;7.13;;
9884;SDS011;4981;50.966;4.842;2023-03-01T09:27:10;11.20;;;8.37;;
9884;SDS011;4981;50.966;4.842;2023-03-01T09:29:39;8.13;;;5.60;;
9884;SDS011;4981;50.966;4.842;2023-03-01T09:32:09;10.87;;;8.60;;
9884;SDS011;4981;50.966;4.842;2023-03-01T09:34:36;10.47;;;8.13;;
9884;SDS011;4981;50.966;4.842;2023-03-01T09:37:17;7.40;;;6.63;;
9884;SDS011;4981;50.966;4.842;2023-03-01T09:39:45;10.40;;;8.40;;
9884;SDS011;4981;50.966;4.842;2023-03-01T09:42:13;10.27;;;7.83;;
9884;SDS011;4981;50.966;4.842;2023-03-01T09:44:42;8.53;;;6.47;;
9884;SDS011;4981;50.966;4.842;2023-03-01T09:47:16;6.63;;;4.60;;
9884;SDS011;4981;50.966;4.842;2023-03-01T09:49:45;11.93;;;8.73;;
9884;SDS011;4981;50.966;4.842;2023-03-01T09:52:20;10.73;;;8.20;;
9884;SDS011;4981;50.966;4.842;2023-03-01T09:54:52;10.77;;;9.13;;
9884;SDS011;4981;50.966;4.842;2023-03-01T09:57:25;8.03;;;6.73;;
9884;SDS011;4981;50.966;4.842;2023-03-01T10:02:47;8.10;;;4.70;;
9884;SDS011;4981;50.966;4.842;2023-03-01T10:08:13;7.80;;;6.20;;
9884;SDS011;4981;50.966;4.842;2023-03-01T10:10:47;11.77;;;7.80;;
9884;SDS011;4981;50.966;4.842;2023-03-01T10:13:15;7.57;;;5.50;;
9884;SDS011;4981;50.966;4.842;2023-03-01T10:15:45;11.90;;;8.47;;
9884;SDS011;4981;50.966;4.842;2023-03-01T10:18:16;8.97;;;6.27;;
9884;SDS011;4981;50.966;4.842;2023-03-01T10:20:46;8.37;;;6.87;;
9884;SDS011;4981;50.966;4.842;2023-03-01T10:23:17;6.87;;;5.03;;
9884;SDS011;4981;50.966;4.842;2023-03-01T10:25:47;11.03;;;8.50;;
9884;SDS011;4981;50.966;4.842;2023-03-01T10:28:17;13.83;;;9.17;;
9884;SDS011;4981;50.966;4.842;2023-03-01T10:30:47;8.83;;;6.80;;
9884;SDS011;4981;50.966;4.842;2023-03-01T10:33:17;10.30;;;7.40;;
9884;SDS011;4981;50.966;4.842;2023-03-01T10:35:47;11.27;;;6.80;;
9884;SDS011;4981;50.966;4.842;2023-03-01T10:38:16;6.57;;;4.83;;
9884;SDS011;4981;50.966;4.842;2023-03-01T10:40:52;7.80;;;6.37;;
9884;SDS011;4981;50.966;4.842;2023-03-01T10:43:22;12.40;;;8.97;;
9884;SDS011;4981;50.966;4.842;2023-03-01T10:45:50;10.43;;;5.53;;
9884;SDS011;4981;50.966;4.842;2023-03-01T10:48:21;9.70;;;8.10;;
9884;SDS011;4981;50.966;4.842;2023-03-01T10:50:51;10.53;;;8.73;;
9884;SDS011;4981;50.966;4.842;2023-03-01T10:53:32;10.60;;;8.63;;
9884;SDS011;4981;50.966;4.842;2023-03-01T10:56:01;10.23;;;7.37;;
9884;SDS011;4981;50.966;4.842;2023-03-01T10:58:30;10.90;;;7.47;;
9884;SDS011;4981;50.966;4.842;2023-03-01T11:00:58;12.87;;;8.90;;
9884;SDS011;4981;50.966;4.842;2023-03-01T11:03:29;11.13;;;8.63;;
9884;SDS011;4981;50.966;4.842;2023-03-01T11:06:02;10.97;;;8.87;;
9884;SDS011;4981;50.966;4.842;2023-03-01T11:08:33;11.30;;;8.47;;
9884;SDS011;4981;50.966;4.842;2023-03-01T11:11:03;8.47;;;6.43;;
9884;SDS011;4981;50.966;4.842;2023-03-01T11:13:31;6.13;;;5.20;;
9884;SDS011;4981;50.966;4.842;2023-03-01T11:15:59;8.80;;;6.70;;
9884;SDS011;4981;50.966;4.842;2023-03-01T11:18:29;11.73;;;8.63;;
9884;SDS011;4981;50.966;4.842;2023-03-01T11:20:56;6.23;;;5.20;;
9884;SDS011;4981;50.966;4.842;2023-03-01T11:23:25;7.53;;;5.27;;
9884;SDS011;4981;50.966;4.842;2023-03-01T11:25:56;5.83;;;4.67;;
9884;SDS011;4981;50.966;4.842;2023-03-01T11:28:24;10.57;;;6.50;;
9884;SDS011;4981;50.966;4.842;2023-03-01T11:30:53;7.83;;;5.87;;
9884;SDS011;4981;50.966;4.842;2023-03-01T11:33:24;10.77;;;8.83;;
9884;SDS011;4981;50.966;4.842;2023-03-01T11:36:01;7.57;;;6.13;;
9884;SDS011;4981;50.966;4.842;2023-03-01T11:38:30;10.70;;;7.70;;
9884;SDS011;4981;50.966;4.842;2023-03-01T11:41:00;12.70;;;9.97;;
9884;SDS011;4981;50.966;4.842;2023-03-01T11:43:33;21.33;;;13.73;;
9884;SDS011;4981;50.966;4.842;2023-03-01T11:48:49;27.83;;;17.27;;
9884;SDS011;4981;50.966;4.842;2023-03-01T11:51:23;28.13;;;16.57;;
9884;SDS011;4981;50.966;4.842;2023-03-01T11:53:58;21.33;;;13.67;;
9884;SDS011;4981;50.966;4.842;2023-03-01T11:56:28;12.53;;;8.13;;
9884;SDS011;4981;50.966;4.842;2023-03-01T11:59:06;17.37;;;11.97;;
9884;SDS011;4981;50.966;4.842;2023-03-01T12:01:40;11.67;;;7.60;;
9884;SDS011;4981;50.966;4.842;2023-03-01T12:06:59;15.90;;;11.40;;
9884;SDS011;4981;50.966;4.842;2023-03-01T12:09:36;17.90;;;10.33;;
9884;SDS011;4981;50.966;4.842;2023-03-01T12:12:13;37.97;;;21.17;;
9884;SDS011;4981;50.966;4.842;2023-03-01T12:14:47;36.37;;;20.30;;
9884;SDS011;4981;50.966;4.842;2023-03-01T12:17:24;80.87;;;62.50;;
9884;SDS011;4981;50.966;4.842;2023-03-01T12:20:06;36.23;;;21.10;;
9884;SDS011;4981;50.966;4.842;2023-03-01T12:22:43;102.63;;;85.63;;
9884;SDS011;4981;50.966;4.842;2023-03-01T12:25:16;133.27;;;119.43;;
9884;SDS011;4981;50.966;4.842;2023-03-01T12:27:56;155.13;;;140.07;;
9884;SDS011;4981;50.966;4.842;2023-03-01T12:30:30;168.93;;;152.50;;
9884;SDS011;4981;50.966;4.842;2023-03-01T12:33:04;135.83;;;122.97;;
9884;SDS011;4981;50.966;4.842;2023-03-01T12:35:47;195.10;;;176.57;;
9884;SDS011;4981;50.966;4.842;2023-03-01T12:38:22;189.90;;;171.03;;
9884;SDS011;4981;50.966;4.842;2023-03-01T12:43:47;215.73;;;196.40;;
9884;SDS011;4981;50.966;4.842;2023-03-01T12:46:20;41.77;;;32.30;;
9884;SDS011;4981;50.966;4.842;2023-03-01T12:48:51;162.97;;;146.07;;
9884;SDS011;4981;50.966;4.842;2023-03-01T12:51:24;148.67;;;134.20;;
9884;SDS011;4981;50.966;4.842;2023-03-01T12:53:55;178.67;;;161.33;;
9884;SDS011;4981;50.966;4.842;2023-03-01T12:56:23;214.63;;;194.83;;
9884;SDS011;4981;50.966;4.842;2023-03-01T12:58:55;167.93;;;152.07;;
9884;SDS011;4981;50.966;4.842;2023-03-01T13:01:27;106.23;;;95.17;;
9884;SDS011;4981;50.966;4.842;2023-03-01T13:06:44;112.97;;;101.73;;
9884;SDS011;4981;50.966;4.842;2023-03-01T13:09:17;47.90;;;42.57;;
9884;SDS011;4981;50.966;4.842;2023-03-01T13:11:48;132.47;;;118.20;;
9884;SDS011;4981;50.966;4.842;2023-03-01T13:14:42;84.33;;;75.80;;
9884;SDS011;4981;50.966;4.842;2023-03-01T13:17:30;199.53;;;181.43;;
9884;SDS011;4981;50.966;4.842;2023-03-01T13:19:59;161.17;;;145.03;;
9884;SDS011;4981;50.966;4.842;2023-03-01T13:22:29;182.10;;;164.13;;
9884;SDS011;4981;50.966;4.842;2023-03-01T13:25:03;71.13;;;59.87;;
9884;SDS011;4981;50.966;4.842;2023-03-01T13:27:39;127.77;;;115.00;;
9884;SDS011;4981;50.966;4.842;2023-03-01T13:30:37;161.17;;;145.03;;
9884;SDS011;4981;50.966;4.842;2023-03-01T13:35:44;161.47;;;146.03;;
9884;SDS011;4981;50.966;4.842;2023-03-01T13:41:00;204.43;;;185.40;;
9884;SDS011;4981;50.966;4.842;2023-03-01T13:43:29;133.20;;;119.67;;
9884;SDS011;4981;50.966;4.842;2023-03-01T13:45:57;116.23;;;105.17;;
9884;SDS011;4981;50.966;4.842;2023-03-01T13:48:26;132.93;;;120.10;;
9884;SDS011;4981;50.966;4.842;2023-03-01T13:50:55;158.60;;;142.83;;
9884;SDS011;4981;50.966;4.842;2023-03-01T13:53:26;184.90;;;167.20;;
9884;SDS011;4981;50.966;4.842;2023-03-01T13:55:55;210.80;;;191.63;;
9884;SDS011;4981;50.966;4.842;2023-03-01T13:58:26;218.30;;;199.53;;
9884;SDS011;4981;50.966;4.842;2023-03-01T14:00:55;201.90;;;182.87;;
9884;SDS011;4981;50.966;4.842;2023-03-01T14:03:23;193.63;;;176.07;;
9884;SDS011;4981;50.966;4.842;2023-03-01T14:05:58;294.23;;;269.53;;
9884;SDS011;4981;50.966;4.842;2023-03-01T14:08:27;170.23;;;155.10;;
9884;SDS011;4981;50.966;4.842;2023-03-01T14:13:51;249.23;;;229.00;;
9884;SDS011;4981;50.966;4.842;2023-03-01T14:16:25;186.47;;;169.30;;
9884;SDS011;4981;50.966;4.842;2023-03-01T14:19:00;201.67;;;184.93;;
9884;SDS011;4981;50.966;4.842;2023-03-01T14:21:30;7.57;;;5.27;;
9884;SDS011;4981;50.966;4.842;2023-03-01T14:23:58;47.30;;;43.23;;
9884;SDS011;4981;50.966;4.842;2023-03-01T14:26:26;93.97;;;86.20;;
9884;SDS011;4981;50.966;4.842;2023-03-01T14:28:55;175.83;;;159.07;;
9884;SDS011;4981;50.966;4.842;2023-03-01T14:31:31;159.83;;;143.03;;
9884;SDS011;4981;50.966;4.842;2023-03-01T14:33:59;205.77;;;187.70;;
9884;SDS011;4981;50.966;4.842;2023-03-01T14:36:27;212.87;;;194.00;;
9884;SDS011;4981;50.966;4.842;2023-03-01T14:38:55;219.60;;;198.87;;
9884;SDS011;4981;50.966;4.842;2023-03-01T14:41:30;68.63;;;59.67;;
9884;SDS011;4981;50.966;4.842;2023-03-01T14:44:00;71.27;;;63.40;;
9884;SDS011;4981;50.966;4.842;2023-03-01T14:46:29;187.10;;;168.90;;
9884;SDS011;4981;50.966;4.842;2023-03-01T14:48:58;124.63;;;111.40;;
9884;SDS011;4981;50.966;4.842;2023-03-01T14:51:28;200.23;;;181.47;;
9884;SDS011;4981;50.966;4.842;2023-03-01T14:53:56;188.90;;;171.20;;
9884;SDS011;4981;50.966;4.842;2023-03-01T14:56:24;67.87;;;59.43;;
9884;SDS011;4981;50.966;4.842;2023-03-01T14:58:52;14.83;;;9.77;;
9884;SDS011;4981;50.966;4.842;2023-03-01T15:01:21;47.90;;;41.47;;
9884;SDS011;4981;50.966;4.842;2023-03-01T15:03:49;30.53;;;16.47;;
9884;SDS011;4981;50.966;4.842;2023-03-01T15:06:18;119.30;;;107.53;;
9884;SDS011;4981;50.966;4.842;2023-03-01T15:08:46;158.63;;;142.20;;
9884;SDS011;4981;50.966;4.842;2023-03-01T15:11:19;77.27;;;66.20;;
9884;SDS011;4981;50.966;4.842;2023-03-01T15:13:48;120.87;;;108.37;;
9884;SDS011;4981;50.966;4.842;2023-03-01T15:16:16;165.83;;;150.37;;
9884;SDS011;4981;50.966;4.842;2023-03-01T15:18:46;74.07;;;66.07;;
9884;SDS011;4981;50.966;4.842;2023-03-01T15:21:18;127.43;;;114.90;;
9884;SDS011;4981;50.966;4.842;2023-03-01T15:23:48;92.70;;;83.07;;
9884;SDS011;4981;50.966;4.842;2023-03-01T15:26:21;43.40;;;38.13;;
9884;SDS011;4981;50.966;4.842;2023-03-01T15:28:49;36.53;;;17.10;;
9884;SDS011;4981;50.966;4.842;2023-03-01T15:31:18;42.10;;;35.47;;
9884;SDS011;4981;50.966;4.842;2023-03-01T15:33:48;100.03;;;90.13;;
9884;SDS011;4981;50.966;4.842;2023-03-01T15:36:32;41.93;;;34.33;;
9884;SDS011;4981;50.966;4.842;2023-03-01T15:39:01;66.03;;;38.20;;